Lt Dick Dowling — WDJ3993 — position and weather

sailwx.info

Track history (hours):
 
Tides and Currents Weather Stations Pressure Air Temp Water Temp Dewpoint Dewpoint Depression Visibility Wind Speed Wind Dir Waves Ship Positions

Lt Dick Dowling

Owner: Buffalo Marine Service, Inc., Houston, TX. More information available from US FCC via Universal Licensing System and Coast Guard Vessel Documentation Center.

Last reported at 2017-Dec-16 04:47 UTC. Time now 2017-Dec-16 07:11 UTC.
Position N 29°43' W 095°14'.

Length 21 m; draft 9.5 m.

Type: Tug. MMSI: 367773360.

Date/timePositionNaut miles runAvg speedWind from/ knotsBaromVisibWave heightAir tempDewpointWater temp
2017-Dec-16 04:47N 29°43' W 095°14'1 4.7
2017-Dec-16 04:30N 29°44' W 095°16'1 1.1
2017-Dec-16 03:59N 29°44' W 095°16'0 0.1
2017-Dec-16 03:30N 29°44' W 095°16'0 0.0
2017-Dec-16 02:55N 29°44' W 095°16'0 0.0
2017-Dec-16 02:25N 29°44' W 095°16'0 0.0
2017-Dec-16 01:49N 29°44' W 095°16'0 0.0
2017-Dec-16 01:10N 29°44' W 095°16'0 0.0
2017-Dec-16 00:52N 29°44' W 095°16'0 0.0
2017-Dec-16 00:28N 29°44' W 095°16'0 0.2
2017-Dec-15 22:40N 29°43' W 095°16'0 1.6
2017-Dec-15 22:30N 29°44' W 095°16'0 0.1
2017-Dec-15 21:58N 29°44' W 095°16'0 0.0
2017-Dec-15 21:25N 29°44' W 095°16'0 0.0
2017-Dec-15 20:58N 29°44' W 095°16'0 0.0
2017-Dec-15 20:25N 29°44' W 095°16'0 0.0
2017-Dec-15 19:55N 29°44' W 095°16'0 0.0
2017-Dec-15 19:22N 29°44' W 095°16'0 0.0
2017-Dec-15 18:58N 29°44' W 095°16'0 0.0
2017-Dec-15 18:25N 29°44' W 095°16'0 0.0
2017-Dec-15 17:55N 29°44' W 095°16'1 2.7
2017-Dec-15 17:29N 29°43' W 095°15'3 5.4
2017-Dec-15 16:56N 29°45' W 095°12'3 5.9
2017-Dec-15 16:30N 29°44' W 095°09'2 0.2
2017-Dec-15 05:17N 29°44' W 095°07'1 3.6
2017-Dec-15 04:58N 29°44' W 095°08'0 0.0
2017-Dec-15 04:22N 29°44' W 095°08'0 0.0
2017-Dec-15 03:46N 29°44' W 095°08'0 0.0
2017-Dec-15 02:28N 29°44' W 095°08'0 0.0
2017-Dec-15 00:55N 29°44' W 095°08'0 0.0
2017-Dec-15 00:22N 29°44' W 095°08'3 0.3
2017-Dec-14 14:12N 29°45' W 095°11'1 4.5
2017-Dec-14 13:59N 29°45' W 095°10'2 2.8
2017-Dec-14 13:20N 29°44' W 095°08'2 4.6
2017-Dec-14 12:58N 29°45' W 095°07'3 4.0
2017-Dec-14 12:19N 29°44' W 095°03'1 0.3
2017-Dec-14 10:13N 29°44' W 095°03'0 0.0
2017-Dec-14 09:49N 29°44' W 095°03'0 0.0
2017-Dec-14 09:07N 29°44' W 095°03'0 0.0
2017-Dec-14 08:37N 29°44' W 095°03'0 0.0
2017-Dec-14 08:25N 29°44' W 095°03'0 0.0
2017-Dec-13 15:32N 29°44' W 095°03'0 0.2
2017-Dec-13 15:30N 29°44' W 095°03'3 5.2
2017-Dec-13 14:59N 29°46' W 095°05'10 1.0
2017-Dec-13 04:57N 29°44' W 095°16'0 0.0
2017-Dec-13 03:38N 29°44' W 095°16'0 0.0
2017-Dec-13 03:26N 29°44' W 095°16'0 0.0
2017-Dec-13 02:44N 29°44' W 095°16'0 0.0
2017-Dec-13 01:23N 29°44' W 095°16'0 0.0
2017-Dec-13 00:50N 29°44' W 095°16'0 0.0
2017-Dec-13 00:29N 29°44' W 095°16'0 0.0
2017-Dec-12 23:59N 29°44' W 095°16'0 0.0
2017-Dec-12 23:26N 29°44' W 095°16'0 0.0
2017-Dec-12 22:53N 29°44' W 095°16'0 0.0
2017-Dec-12 22:29N 29°44' W 095°16'0 0.0
2017-Dec-12 21:59N 29°44' W 095°16'0 0.0
2017-Dec-12 21:29N 29°44' W 095°16'0 0.0
2017-Dec-12 20:47N 29°44' W 095°16'0 0.0
2017-Dec-12 20:26N 29°44' W 095°16'0 0.0
2017-Dec-12 19:53N 29°44' W 095°16'0 0.0
2017-Dec-12 19:23N 29°44' W 095°16'0 0.0
2017-Dec-12 18:59N 29°44' W 095°16'0 0.0
2017-Dec-12 18:23N 29°44' W 095°16'0 0.0
2017-Dec-12 17:56N 29°44' W 095°16'0 0.0
2017-Dec-12 17:29N 29°44' W 095°16'0 0.0
2017-Dec-12 16:59N 29°44' W 095°16'0 0.0
2017-Dec-12 16:26N 29°44' W 095°16'0 0.0
2017-Dec-12 15:59N 29°44' W 095°16'0 0.0
2017-Dec-12 15:29N 29°44' W 095°16'0 0.0
2017-Dec-12 14:56N 29°44' W 095°16'0 0.1
2017-Dec-12 09:27N 29°43' W 095°17'0 0.6
2017-Dec-12 08:57N 29°44' W 095°16'0 0.0
2017-Dec-12 08:27N 29°44' W 095°16'0 0.0
2017-Dec-12 08:00N 29°44' W 095°16'0 0.0
2017-Dec-12 07:30N 29°44' W 095°16'0 0.0
2017-Dec-12 06:57N 29°44' W 095°16'0 0.0
2017-Dec-12 06:27N 29°44' W 095°16'0 0.0
2017-Dec-12 05:57N 29°44' W 095°16'0 0.0
2017-Dec-12 05:18N 29°44' W 095°16'0 0.0
2017-Dec-12 05:00N 29°44' W 095°16'0 0.0
2017-Dec-12 04:21N 29°44' W 095°16'0 0.0
2017-Dec-12 04:00N 29°44' W 095°16'0 0.0
2017-Dec-12 03:27N 29°44' W 095°16'0 0.0
2017-Dec-12 03:00N 29°44' W 095°16'0 0.0
2017-Dec-12 02:30N 29°44' W 095°16'0 0.0
2017-Dec-12 02:00N 29°44' W 095°16'0 0.0
2017-Dec-12 01:15N 29°44' W 095°16'0 0.0
2017-Dec-12 00:54N 29°44' W 095°16'0 0.0
2017-Dec-11 23:33N 29°44' W 095°16'0 0.0
2017-Dec-11 23:21N 29°44' W 095°16'0 0.0
2017-Dec-11 22:57N 29°44' W 095°16'0 0.0
2017-Dec-11 20:09N 29°44' W 095°16'0 0.0
2017-Dec-11 19:57N 29°44' W 095°16'0 0.0
2017-Dec-11 19:30N 29°44' W 095°16'0 0.0
2017-Dec-11 18:57N 29°44' W 095°16'0 0.0
2017-Dec-11 18:30N 29°44' W 095°16'0 0.0
2017-Dec-11 17:54N 29°44' W 095°16'0 0.1
2017-Dec-11 15:53N 29°43' W 095°16'0 0.3
2017-Dec-11 15:14N 29°44' W 095°16'0 0.0
2017-Dec-11 14:44N 29°44' W 095°16'0 0.0
2017-Dec-11 14:29N 29°44' W 095°16'0 0.0
2017-Dec-11 13:44N 29°44' W 095°16'0 0.0
2017-Dec-11 13:26N 29°44' W 095°16'0 0.0
2017-Dec-11 12:53N 29°44' W 095°16'0 0.0
2017-Dec-11 12:20N 29°44' W 095°16'0 0.0
2017-Dec-11 11:53N 29°44' W 095°16'0 0.0
2017-Dec-11 11:23N 29°44' W 095°16'0 0.0
2017-Dec-11 10:56N 29°44' W 095°16'0 0.2
2017-Dec-11 09:00N 29°43' W 095°17'1 1.0
2017-Dec-11 08:30N 29°44' W 095°17'0 0.1
2017-Dec-11 07:47N 29°44' W 095°17'0 0.0
2017-Dec-11 07:26N 29°44' W 095°17'0 0.0
2017-Dec-11 06:59N 29°44' W 095°17'0 0.0
2017-Dec-11 06:29N 29°44' W 095°17'0 0.0
2017-Dec-11 05:59N 29°44' W 095°17'0 0.0
2017-Dec-11 05:26N 29°44' W 095°17'0 0.0
2017-Dec-11 04:59N 29°44' W 095°17'0 0.0
2017-Dec-11 04:29N 29°44' W 095°17'0 0.0
2017-Dec-11 03:59N 29°44' W 095°17'0 0.0
2017-Dec-11 03:26N 29°44' W 095°17'0 0.0
2017-Dec-11 02:59N 29°44' W 095°17'0 0.0
2017-Dec-11 02:26N 29°44' W 095°17'0 0.0
2017-Dec-11 01:59N 29°44' W 095°17'0 0.0
2017-Dec-11 01:23N 29°44' W 095°17'0 0.0
2017-Dec-11 00:59N 29°44' W 095°17'0 0.0
2017-Dec-11 00:17N 29°44' W 095°17'0 0.0
2017-Dec-10 23:59N 29°44' W 095°17'0 0.0
2017-Dec-10 23:26N 29°44' W 095°17'0 0.9
2017-Dec-10 23:00N 29°44' W 095°16'0 0.2
2017-Dec-10 22:00N 29°44' W 095°16'0 0.0
2017-Dec-10 21:27N 29°44' W 095°16'0 0.0
2017-Dec-10 20:51N 29°44' W 095°16'0 0.0
2017-Dec-10 20:27N 29°44' W 095°16'0 0.0
2017-Dec-10 19:57N 29°44' W 095°16'0 0.0
2017-Dec-10 19:27N 29°44' W 095°16'0 0.0
2017-Dec-10 17:30N 29°44' W 095°16'0 0.0
2017-Dec-10 16:51N 29°44' W 095°16'0 0.0
2017-Dec-10 16:27N 29°44' W 095°16'0 0.0
2017-Dec-10 15:54N 29°44' W 095°16'0 0.0
2017-Dec-10 15:27N 29°44' W 095°16'0 0.0
2017-Dec-10 13:18N 29°44' W 095°16'0 0.0
2017-Dec-10 11:27N 29°44' W 095°16'0 0.0
2017-Dec-10 11:00N 29°44' W 095°16'0 0.0
2017-Dec-10 09:03N 29°44' W 095°16'0 0.0
2017-Dec-10 08:45N 29°44' W 095°16'0 0.0
2017-Dec-10 08:27N 29°44' W 095°16'0 0.0
2017-Dec-10 07:54N 29°44' W 095°16'0 0.0
2017-Dec-10 07:12N 29°44' W 095°16'0 0.0
2017-Dec-10 07:00N 29°44' W 095°16'0 0.0
2017-Dec-10 06:30N 29°44' W 095°16'0 0.0
2017-Dec-10 06:00N 29°44' W 095°16'0 0.0
2017-Dec-10 05:30N 29°44' W 095°16'0 0.0
2017-Dec-10 05:00N 29°44' W 095°16'0 0.0
2017-Dec-10 04:30N 29°44' W 095°16'0 0.2
2017-Dec-10 04:00N 29°44' W 095°16'3 5.0
2017-Dec-10 03:30N 29°43' W 095°13'2 4.1
2017-Dec-10 03:00N 29°45' W 095°11'3 6.1
2017-Dec-10 02:29N 29°44' W 095°08'2 0.1
2017-Dec-09 13:18N 29°45' W 095°06'0 0.1
2017-Dec-09 11:09N 29°45' W 095°06'1 3.5
2017-Dec-09 11:00N 29°46' W 095°06'0 0.0
2017-Dec-09 04:04N 29°46' W 095°06'0 4.2
2017-Dec-09 04:00N 29°46' W 095°06'2 4.1
2017-Dec-09 03:28N 29°44' W 095°08'3 7.2
2017-Dec-09 03:00N 29°45' W 095°12'3 6.4
2017-Dec-09 02:30N 29°43' W 095°15'1 0.8
2017-Dec-09 00:59N 29°43' W 095°16'1 1.5
2017-Dec-09 00:28N 29°44' W 095°15'5 5.7
2017-Dec-08 23:37N 29°45' W 095°10'1 6.2
2017-Dec-08 23:26N 29°44' W 095°09'3 6.0
2017-Dec-08 23:00N 29°45' W 095°06'1 0.1
2017-Dec-08 04:08N 29°46' W 095°06'1 3.7
2017-Dec-08 03:59N 29°46' W 095°05'2 4.9
2017-Dec-08 03:30N 29°44' W 095°03'3 5.7
2017-Dec-08 03:00N 29°42' W 095°01'2 4.0
2017-Dec-08 02:30N 29°41' W 094°59'1 0.1
2017-Dec-07 21:07N 29°41' W 095°00'0 0.0
2017-Dec-07 05:52N 29°41' W 095°00'0 0.0
2017-Dec-07 05:13N 29°41' W 095°00'0 0.0
2017-Dec-07 04:55N 29°41' W 095°00'0 0.0
2017-Dec-07 03:55N 29°41' W 095°00'0 0.0
2017-Dec-07 01:10N 29°41' W 095°00'0 0.0
2017-Dec-07 00:52N 29°41' W 095°00'0 0.5
2017-Dec-07 00:22N 29°41' W 095°00'0 0.1
2017-Dec-06 23:58N 29°41' W 095°00'0 0.0
2017-Dec-06 23:28N 29°41' W 095°00'0 0.1
2017-Dec-06 22:59N 29°41' W 095°00'1 2.6
2017-Dec-06 22:26N 29°42' W 095°01'4 6.4
2017-Dec-06 21:51N 29°45' W 095°04'  
Track history (hours):
 
Tides and Currents Weather Stations Pressure Air Temp Water Temp Dewpoint Dewpoint Depression Visibility Wind Speed Wind Dir Waves Ship Positions

Lt Dick Dowling

Owner: Buffalo Marine Service, Inc., Houston, TX. More information available from US FCC via Universal Licensing System and Coast Guard Vessel Documentation Center.

Last reported at 2017-Dec-16 04:47 UTC. Time now 2017-Dec-16 07:11 UTC.
Position N 29°43' W 095°14'.

Length 21 m; draft 9.5 m.

Type: Tug. MMSI: 367773360.

Date/timePositionNaut miles runAvg speedWind from/ knotsBaromVisibWave heightAir tempDewpointWater temp
2017-Dec-16 04:47N 29°43' W 095°14'1 4.7
2017-Dec-16 04:30N 29°44' W 095°16'1 1.1
2017-Dec-16 03:59N 29°44' W 095°16'0 0.1
2017-Dec-16 03:30N 29°44' W 095°16'0 0.0
2017-Dec-16 02:55N 29°44' W 095°16'0 0.0
2017-Dec-16 02:25N 29°44' W 095°16'0 0.0
2017-Dec-16 01:49N 29°44' W 095°16'0 0.0
2017-Dec-16 01:10N 29°44' W 095°16'0 0.0
2017-Dec-16 00:52N 29°44' W 095°16'0 0.0
2017-Dec-16 00:28N 29°44' W 095°16'0 0.2
2017-Dec-15 22:40N 29°43' W 095°16'0 1.6
2017-Dec-15 22:30N 29°44' W 095°16'0 0.1
2017-Dec-15 21:58N 29°44' W 095°16'0 0.0
2017-Dec-15 21:25N 29°44' W 095°16'0 0.0
2017-Dec-15 20:58N 29°44' W 095°16'0 0.0
2017-Dec-15 20:25N 29°44' W 095°16'0 0.0
2017-Dec-15 19:55N 29°44' W 095°16'0 0.0
2017-Dec-15 19:22N 29°44' W 095°16'0 0.0
2017-Dec-15 18:58N 29°44' W 095°16'0 0.0
2017-Dec-15 18:25N 29°44' W 095°16'0 0.0
2017-Dec-15 17:55N 29°44' W 095°16'1 2.7
2017-Dec-15 17:29N 29°43' W 095°15'3 5.4
2017-Dec-15 16:56N 29°45' W 095°12'3 5.9
2017-Dec-15 16:30N 29°44' W 095°09'2 0.2
2017-Dec-15 05:17N 29°44' W 095°07'1 3.6
2017-Dec-15 04:58N 29°44' W 095°08'0 0.0
2017-Dec-15 04:22N 29°44' W 095°08'0 0.0
2017-Dec-15 03:46N 29°44' W 095°08'0 0.0
2017-Dec-15 02:28N 29°44' W 095°08'0 0.0
2017-Dec-15 00:55N 29°44' W 095°08'0 0.0
2017-Dec-15 00:22N 29°44' W 095°08'3 0.3
2017-Dec-14 14:12N 29°45' W 095°11'1 4.5
2017-Dec-14 13:59N 29°45' W 095°10'2 2.8
2017-Dec-14 13:20N 29°44' W 095°08'2 4.6
2017-Dec-14 12:58N 29°45' W 095°07'3 4.0
2017-Dec-14 12:19N 29°44' W 095°03'1 0.3
2017-Dec-14 10:13N 29°44' W 095°03'0 0.0
2017-Dec-14 09:49N 29°44' W 095°03'0 0.0
2017-Dec-14 09:07N 29°44' W 095°03'0 0.0
2017-Dec-14 08:37N 29°44' W 095°03'0 0.0
2017-Dec-14 08:25N 29°44' W 095°03'0 0.0
2017-Dec-13 15:32N 29°44' W 095°03'0 0.2
2017-Dec-13 15:30N 29°44' W 095°03'3 5.2
2017-Dec-13 14:59N 29°46' W 095°05'10 1.0
2017-Dec-13 04:57N 29°44' W 095°16'0 0.0
2017-Dec-13 03:38N 29°44' W 095°16'0 0.0
2017-Dec-13 03:26N 29°44' W 095°16'0 0.0
2017-Dec-13 02:44N 29°44' W 095°16'0 0.0
2017-Dec-13 01:23N 29°44' W 095°16'0 0.0
2017-Dec-13 00:50N 29°44' W 095°16'0 0.0
2017-Dec-13 00:29N 29°44' W 095°16'0 0.0
2017-Dec-12 23:59N 29°44' W 095°16'0 0.0
2017-Dec-12 23:26N 29°44' W 095°16'0 0.0
2017-Dec-12 22:53N 29°44' W 095°16'0 0.0
2017-Dec-12 22:29N 29°44' W 095°16'0 0.0
2017-Dec-12 21:59N 29°44' W 095°16'0 0.0
2017-Dec-12 21:29N 29°44' W 095°16'0 0.0
2017-Dec-12 20:47N 29°44' W 095°16'0 0.0
2017-Dec-12 20:26N 29°44' W 095°16'0 0.0
2017-Dec-12 19:53N 29°44' W 095°16'0 0.0
2017-Dec-12 19:23N 29°44' W 095°16'0 0.0
2017-Dec-12 18:59N 29°44' W 095°16'0 0.0
2017-Dec-12 18:23N 29°44' W 095°16'0 0.0
2017-Dec-12 17:56N 29°44' W 095°16'0 0.0
2017-Dec-12 17:29N 29°44' W 095°16'0 0.0
2017-Dec-12 16:59N 29°44' W 095°16'0 0.0
2017-Dec-12 16:26N 29°44' W 095°16'0 0.0
2017-Dec-12 15:59N 29°44' W 095°16'0 0.0
2017-Dec-12 15:29N 29°44' W 095°16'0 0.0
2017-Dec-12 14:56N 29°44' W 095°16'0 0.1
2017-Dec-12 09:27N 29°43' W 095°17'0 0.6
2017-Dec-12 08:57N 29°44' W 095°16'0 0.0
2017-Dec-12 08:27N 29°44' W 095°16'0 0.0
2017-Dec-12 08:00N 29°44' W 095°16'0 0.0
2017-Dec-12 07:30N 29°44' W 095°16'0 0.0
2017-Dec-12 06:57N 29°44' W 095°16'0 0.0
2017-Dec-12 06:27N 29°44' W 095°16'0 0.0
2017-Dec-12 05:57N 29°44' W 095°16'0 0.0
2017-Dec-12 05:18N 29°44' W 095°16'0 0.0
2017-Dec-12 05:00N 29°44' W 095°16'0 0.0
2017-Dec-12 04:21N 29°44' W 095°16'0 0.0
2017-Dec-12 04:00N 29°44' W 095°16'0 0.0
2017-Dec-12 03:27N 29°44' W 095°16'0 0.0
2017-Dec-12 03:00N 29°44' W 095°16'0 0.0
2017-Dec-12 02:30N 29°44' W 095°16'0 0.0
2017-Dec-12 02:00N 29°44' W 095°16'0 0.0
2017-Dec-12 01:15N 29°44' W 095°16'0 0.0
2017-Dec-12 00:54N 29°44' W 095°16'0 0.0
2017-Dec-11 23:33N 29°44' W 095°16'0 0.0
2017-Dec-11 23:21N 29°44' W 095°16'0 0.0
2017-Dec-11 22:57N 29°44' W 095°16'0 0.0
2017-Dec-11 20:09N 29°44' W 095°16'0 0.0
2017-Dec-11 19:57N 29°44' W 095°16'0 0.0
2017-Dec-11 19:30N 29°44' W 095°16'0 0.0
2017-Dec-11 18:57N 29°44' W 095°16'0 0.0
2017-Dec-11 18:30N 29°44' W 095°16'0 0.0
2017-Dec-11 17:54N 29°44' W 095°16'0 0.1
2017-Dec-11 15:53N 29°43' W 095°16'0 0.3
2017-Dec-11 15:14N 29°44' W 095°16'0 0.0
2017-Dec-11 14:44N 29°44' W 095°16'0 0.0
2017-Dec-11 14:29N 29°44' W 095°16'0 0.0
2017-Dec-11 13:44N 29°44' W 095°16'0 0.0
2017-Dec-11 13:26N 29°44' W 095°16'0 0.0
2017-Dec-11 12:53N 29°44' W 095°16'0 0.0
2017-Dec-11 12:20N 29°44' W 095°16'0 0.0
2017-Dec-11 11:53N 29°44' W 095°16'0 0.0
2017-Dec-11 11:23N 29°44' W 095°16'0 0.0
2017-Dec-11 10:56N 29°44' W 095°16'0 0.2
2017-Dec-11 09:00N 29°43' W 095°17'1 1.0
2017-Dec-11 08:30N 29°44' W 095°17'0 0.1
2017-Dec-11 07:47N 29°44' W 095°17'0 0.0
2017-Dec-11 07:26N 29°44' W 095°17'0 0.0
2017-Dec-11 06:59N 29°44' W 095°17'0 0.0
2017-Dec-11 06:29N 29°44' W 095°17'0 0.0
2017-Dec-11 05:59N 29°44' W 095°17'0 0.0
2017-Dec-11 05:26N 29°44' W 095°17'0 0.0
2017-Dec-11 04:59N 29°44' W 095°17'0 0.0
2017-Dec-11 04:29N 29°44' W 095°17'0 0.0
2017-Dec-11 03:59N 29°44' W 095°17'0 0.0
2017-Dec-11 03:26N 29°44' W 095°17'0 0.0
2017-Dec-11 02:59N 29°44' W 095°17'0 0.0
2017-Dec-11 02:26N 29°44' W 095°17'0 0.0
2017-Dec-11 01:59N 29°44' W 095°17'0 0.0
2017-Dec-11 01:23N 29°44' W 095°17'0 0.0
2017-Dec-11 00:59N 29°44' W 095°17'0 0.0
2017-Dec-11 00:17N 29°44' W 095°17'0 0.0
2017-Dec-10 23:59N 29°44' W 095°17'0 0.0
2017-Dec-10 23:26N 29°44' W 095°17'0 0.9
2017-Dec-10 23:00N 29°44' W 095°16'0 0.2
2017-Dec-10 22:00N 29°44' W 095°16'0 0.0
2017-Dec-10 21:27N 29°44' W 095°16'0 0.0
2017-Dec-10 20:51N 29°44' W 095°16'0 0.0
2017-Dec-10 20:27N 29°44' W 095°16'0 0.0
2017-Dec-10 19:57N 29°44' W 095°16'0 0.0
2017-Dec-10 19:27N 29°44' W 095°16'0 0.0
2017-Dec-10 17:30N 29°44' W 095°16'0 0.0
2017-Dec-10 16:51N 29°44' W 095°16'0 0.0
2017-Dec-10 16:27N 29°44' W 095°16'0 0.0
2017-Dec-10 15:54N 29°44' W 095°16'0 0.0
2017-Dec-10 15:27N 29°44' W 095°16'0 0.0
2017-Dec-10 13:18N 29°44' W 095°16'0 0.0
2017-Dec-10 11:27N 29°44' W 095°16'0 0.0
2017-Dec-10 11:00N 29°44' W 095°16'0 0.0
2017-Dec-10 09:03N 29°44' W 095°16'0 0.0
2017-Dec-10 08:45N 29°44' W 095°16'0 0.0
2017-Dec-10 08:27N 29°44' W 095°16'0 0.0
2017-Dec-10 07:54N 29°44' W 095°16'0 0.0
2017-Dec-10 07:12N 29°44' W 095°16'0 0.0
2017-Dec-10 07:00N 29°44' W 095°16'0 0.0
2017-Dec-10 06:30N 29°44' W 095°16'0 0.0
2017-Dec-10 06:00N 29°44' W 095°16'0 0.0
2017-Dec-10 05:30N 29°44' W 095°16'0 0.0
2017-Dec-10 05:00N 29°44' W 095°16'0 0.0
2017-Dec-10 04:30N 29°44' W 095°16'0 0.2
2017-Dec-10 04:00N 29°44' W 095°16'3 5.0
2017-Dec-10 03:30N 29°43' W 095°13'2 4.1
2017-Dec-10 03:00N 29°45' W 095°11'3 6.1
2017-Dec-10 02:29N 29°44' W 095°08'2 0.1
2017-Dec-09 13:18N 29°45' W 095°06'0 0.1
2017-Dec-09 11:09N 29°45' W 095°06'1 3.5
2017-Dec-09 11:00N 29°46' W 095°06'0 0.0
2017-Dec-09 04:04N 29°46' W 095°06'0 4.2
2017-Dec-09 04:00N 29°46' W 095°06'2 4.1
2017-Dec-09 03:28N 29°44' W 095°08'3 7.2
2017-Dec-09 03:00N 29°45' W 095°12'3 6.4
2017-Dec-09 02:30N 29°43' W 095°15'1 0.8
2017-Dec-09 00:59N 29°43' W 095°16'1 1.5
2017-Dec-09 00:28N 29°44' W 095°15'5 5.7
2017-Dec-08 23:37N 29°45' W 095°10'1 6.2
2017-Dec-08 23:26N 29°44' W 095°09'3 6.0
2017-Dec-08 23:00N 29°45' W 095°06'1 0.1
2017-Dec-08 04:08N 29°46' W 095°06'1 3.7
2017-Dec-08 03:59N 29°46' W 095°05'2 4.9
2017-Dec-08 03:30N 29°44' W 095°03'3 5.7
2017-Dec-08 03:00N 29°42' W 095°01'2 4.0
2017-Dec-08 02:30N 29°41' W 094°59'1 0.1
2017-Dec-07 21:07N 29°41' W 095°00'0 0.0
2017-Dec-07 05:52N 29°41' W 095°00'0 0.0
2017-Dec-07 05:13N 29°41' W 095°00'0 0.0
2017-Dec-07 04:55N 29°41' W 095°00'0 0.0
2017-Dec-07 03:55N 29°41' W 095°00'0 0.0
2017-Dec-07 01:10N 29°41' W 095°00'0 0.0
2017-Dec-07 00:52N 29°41' W 095°00'0 0.5
2017-Dec-07 00:22N 29°41' W 095°00'0 0.1
2017-Dec-06 23:58N 29°41' W 095°00'0 0.0
2017-Dec-06 23:28N 29°41' W 095°00'0 0.1
2017-Dec-06 22:59N 29°41' W 095°00'1 2.6
2017-Dec-06 22:26N 29°42' W 095°01'4 6.4
2017-Dec-06 21:51N 29°45' W 095°04'  

Dump ship's entire track history